Time;durP1;ratioP1;P1;durP2;ratioP2;P2;SDS_P1;SDS_P2;PMS_P1;PMS_P2;Temp;Humidity;BMP_temperature;BMP_pressure;BME280_temperature;BME280_humidity;BME280_pressure;Samples;Min_cycle;Max_cycle;Signal;HPM_P1;HPM_P2
2021/12/19 00:04:27;;;;;;;9.77;3.38;;;20.00;60.70;;;;;;5018521;28;87144;-58
2021/12/19 00:09:19;;;;;;;8.32;2.58;;;20.00;60.70;;;;;;5018157;28;87107;-59
2021/12/19 00:11:45;;;;;;;6.93;3.03;;;20.00;60.70;;;;;;5025302;28;88049;-58
2021/12/19 00:14:11;;;;;;;3.95;2.53;;;20.00;60.70;;;;;;5012905;28;88064;-59
2021/12/19 00:16:36;;;;;;;6.28;2.92;;;20.00;60.70;;;;;;5013287;28;89354;-61
2021/12/19 00:19:02;;;;;;;6.05;2.40;;;20.00;60.70;;;;;;5019077;28;87946;-62
2021/12/19 00:21:28;;;;;;;6.25;2.80;;;20.00;60.70;;;;;;5014901;28;87969;-59
2021/12/19 00:23:55;;;;;;;8.15;2.60;;;20.00;60.70;;;;;;5024765;28;87930;-59
2021/12/19 00:26:21;;;;;;;5.97;2.33;;;20.00;60.70;;;;;;5014244;28;88968;-58
2021/12/19 00:28:48;;;;;;;4.57;2.75;;;20.00;60.70;;;;;;5024792;28;88789;-59
2021/12/19 00:31:14;;;;;;;4.85;2.38;;;20.00;60.70;;;;;;5020340;28;87985;-59
2021/12/19 00:33:41;;;;;;;6.53;2.75;;;19.90;60.70;;;;;;5017776;28;87143;-60
2021/12/19 00:36:08;;;;;;;5.50;2.85;;;19.90;60.70;;;;;;5018447;28;88037;-60
2021/12/19 00:38:34;;;;;;;4.53;2.50;;;20.00;60.80;;;;;;5019117;28;87997;-59
2021/12/19 00:41:03;;;;;;;5.80;2.40;;;19.90;60.70;;;;;;5020655;28;87588;-60
2021/12/19 00:43:53;;;;;;;4.45;2.80;;;19.90;60.70;;;;;;4997461;28;88319;-58
2021/12/19 00:46:19;;;;;;;5.85;2.50;;;19.90;60.70;;;;;;5021742;28;89187;-58
2021/12/19 00:48:47;;;;;;;7.72;2.92;;;19.90;60.70;;;;;;5018192;28;87858;-59
2021/12/19 00:51:17;;;;;;;6.15;2.00;;;19.90;60.80;;;;;;5008153;28;88692;-61
2021/12/19 00:53:46;;;;;;;4.10;2.15;;;19.90;60.70;;;;;;4996263;28;90547;-60
2021/12/19 00:56:13;;;;;;;3.67;2.13;;;19.90;60.70;;;;;;5017665;28;87835;-59
2021/12/19 00:58:38;;;;;;;7.00;2.90;;;19.90;60.70;;;;;;5016919;28;87824;-58
2021/12/19 01:01:06;;;;;;;4.85;2.63;;;19.90;60.70;;;;;;5015985;28;88097;-59
2021/12/19 01:03:33;;;;;;;3.67;2.28;;;19.90;60.90;;;;;;5023659;28;88140;-59
2021/12/19 01:06:00;;;;;;;4.00;2.22;;;19.90;60.70;;;;;;5018247;28;88188;-58
2021/12/19 01:08:25;;;;;;;2.85;1.90;;;19.80;60.70;;;;;;5017449;28;88695;-59
2021/12/19 01:10:51;;;;;;;4.47;2.08;;;19.90;60.70;;;;;;5012322;28;88000;-58
2021/12/19 01:13:17;;;;;;;4.63;2.30;;;19.80;60.80;;;;;;5016425;28;88258;-59
2021/12/19 01:15:45;;;;;;;3.85;2.42;;;19.80;60.70;;;;;;5022371;28;89172;-58
2021/12/19 01:18:11;;;;;;;4.75;2.17;;;19.80;60.80;;;;;;5017471;28;88335;-60
2021/12/19 01:20:39;;;;;;;6.38;2.65;;;19.80;60.70;;;;;;5023231;28;88180;-59
2021/12/19 01:23:06;;;;;;;3.72;2.20;;;19.80;60.80;;;;;;5018305;28;87476;-59
2021/12/19 01:25:32;;;;;;;4.57;2.50;;;19.80;60.70;;;;;;5017418;28;88117;-61
2021/12/19 01:27:58;;;;;;;5.38;2.30;;;19.80;60.80;;;;;;5018365;28;88156;-58
2021/12/19 01:30:24;;;;;;;4.65;2.05;;;19.80;60.80;;;;;;4995565;28;88239;-61
2021/12/19 01:32:50;;;;;;;5.05;2.38;;;19.80;60.80;;;;;;5016516;28;87066;-61
2021/12/19 01:35:18;;;;;;;5.05;2.65;;;19.80;60.80;;;;;;5016935;28;88537;-58
2021/12/19 01:37:45;;;;;;;3.95;2.20;;;19.80;60.90;;;;;;5021111;28;87430;-60
2021/12/19 01:40:12;;;;;;;5.03;2.17;;;19.80;60.90;;;;;;5016675;28;88305;-59
2021/12/19 01:42:40;;;;;;;3.17;1.95;;;19.70;60.90;;;;;;5017036;28;87163;-60
2021/12/19 01:45:10;;;;;;;3.10;1.95;;;19.80;61.00;;;;;;5008439;28;91862;-58
2021/12/19 01:47:36;;;;;;;3.95;2.03;;;19.70;60.90;;;;;;5016031;28;90278;-60
2021/12/19 01:50:04;;;;;;;6.28;2.50;;;19.80;61.00;;;;;;5022357;28;88322;-60
2021/12/19 01:52:30;;;;;;;5.47;1.85;;;19.70;60.90;;;;;;5017460;28;87087;-58
2021/12/19 01:54:56;;;;;;;4.38;2.55;;;19.70;61.00;;;;;;5023274;28;89202;-61
2021/12/19 01:57:25;;;;;;;5.57;2.00;;;19.70;61.00;;;;;;5020207;28;88178;-61
2021/12/19 01:59:52;;;;;;;4.05;2.10;;;19.70;61.00;;;;;;5010469;28;87826;-58
2021/12/19 02:02:18;;;;;;;4.30;2.25;;;19.70;61.00;;;;;;5017036;28;87184;-62
2021/12/19 02:04:44;;;;;;;4.93;2.20;;;19.70;61.00;;;;;;5007119;28;92175;-58
2021/12/19 02:07:11;;;;;;;4.28;2.13;;;19.70;61.60;;;;;;5017530;28;87897;-58
2021/12/19 02:09:38;;;;;;;4.82;2.17;;;19.70;61.10;;;;;;5010599;28;87629;-59
2021/12/19 02:12:04;;;;;;;3.78;1.77;;;19.70;61.10;;;;;;5018947;28;88144;-59
2021/12/19 02:14:30;;;;;;;5.03;2.15;;;19.70;61.10;;;;;;5018690;28;88607;-60
2021/12/19 02:16:56;;;;;;;2.88;1.88;;;19.70;61.10;;;;;;5016378;28;87970;-58
2021/12/19 02:19:24;;;;;;;3.78;2.15;;;19.70;61.10;;;;;;5012937;28;87381;-58
2021/12/19 02:21:50;;;;;;;2.75;1.92;;;19.70;61.10;;;;;;5022285;28;87488;-59
2021/12/19 02:24:16;;;;;;;3.17;1.70;;;19.70;61.10;;;;;;5016305;28;88077;-59
2021/12/19 02:26:43;;;;;;;3.40;1.60;;;19.70;61.10;;;;;;5019124;28;88284;-58
2021/12/19 02:29:10;;;;;;;2.95;1.88;;;19.70;61.10;;;;;;5016695;28;88707;-58
2021/12/19 02:31:36;;;;;;;4.30;2.10;;;19.70;61.10;;;;;;5017492;28;87008;-58
2021/12/19 02:34:17;;;;;;;3.17;1.52;;;19.60;61.10;;;;;;5017890;28;87960;-58
2021/12/19 02:37:12;;;;;;;4.32;1.80;;;19.70;61.10;;;;;;5017174;28;87866;-58
2021/12/19 02:39:47;;;;;;;4.68;1.60;;;19.60;61.10;;;;;;5014645;28;87498;-58
2021/12/19 02:48:12;;;;;;;3.65;1.70;;;19.60;61.10;;;;;;5014190;28;87661;-58
2021/12/19 02:50:46;;;;;;;5.55;1.90;;;19.70;61.10;;;;;;5009656;28;88211;-58
2021/12/19 02:53:13;;;;;;;3.35;1.58;;;19.60;61.10;;;;;;5007262;28;88313;-58
2021/12/19 02:55:40;;;;;;;3.97;1.73;;;19.60;61.10;;;;;;5015047;28;89169;-59
2021/12/19 02:58:06;;;;;;;3.70;1.80;;;19.60;61.70;;;;;;5006436;28;91820;-61
2021/12/19 03:00:32;;;;;;;4.03;1.80;;;19.60;61.20;;;;;;4991861;28;87864;-58
2021/12/19 03:02:57;;;;;;;2.55;1.60;;;19.60;61.20;;;;;;5018161;28;88057;-57
2021/12/19 03:05:23;;;;;;;3.35;1.73;;;19.60;61.20;;;;;;5011674;28;88248;-59
2021/12/19 03:07:51;;;;;;;4.72;1.90;;;19.60;61.20;;;;;;5016512;28;88946;-58
2021/12/19 03:18:31;;;;;;;3.17;2.05;;;19.60;61.30;;;;;;5016682;28;88474;-58
2021/12/19 03:20:57;;;;;;;2.95;1.90;;;19.60;61.30;;;;;;5020606;28;89241;-59
2021/12/19 03:23:22;;;;;;;5.50;1.60;;;19.60;61.30;;;;;;5006457;28;90079;-60
2021/12/19 03:25:48;;;;;;;3.47;2.25;;;19.50;61.20;;;;;;5014541;28;88064;-59
2021/12/19 03:28:15;;;;;;;2.70;1.50;;;19.60;61.30;;;;;;5015919;28;88440;-58
2021/12/19 03:30:43;;;;;;;5.32;1.83;;;19.50;61.30;;;;;;5018089;28;87900;-61
2021/12/19 03:33:09;;;;;;;3.70;1.50;;;19.60;61.30;;;;;;5013781;28;87574;-60
2021/12/19 03:35:35;;;;;;;3.88;1.77;;;19.50;61.30;;;;;;5018116;28;88377;-58
2021/12/19 03:38:03;;;;;;;4.18;1.95;;;19.50;61.30;;;;;;5018367;28;87336;-58
2021/12/19 03:40:37;;;;;;;3.35;1.60;;;19.50;61.30;;;;;;5009177;28;87428;-61
2021/12/19 03:43:07;;;;;;;;;;;19.50;61.30;;;;;;4991397;28;87664;-58
2021/12/19 03:45:34;;;;;;;3.70;1.20;;;19.50;61.30;;;;;;5016970;28;89627;-59
2021/12/19 03:48:01;;;;;;;3.15;1.65;;;19.50;61.30;;;;;;5015740;28;88280;-59
2021/12/19 03:50:27;;;;;;;4.90;2.13;;;19.50;61.30;;;;;;5021840;28;88157;-62
2021/12/19 03:52:54;;;;;;;2.92;1.70;;;19.50;61.30;;;;;;5017386;28;87347;-58
2021/12/19 03:55:21;;;;;;;4.18;1.65;;;19.50;61.40;;;;;;5018671;28;87618;-59
2021/12/19 03:57:47;;;;;;;3.05;1.35;;;19.50;61.40;;;;;;5015772;28;87949;-59
2021/12/19 04:00:16;;;;;;;3.53;1.80;;;19.50;61.40;;;;;;5020427;27;87136;-59
2021/12/19 04:02:47;;;;;;;3.63;1.75;;;19.50;61.40;;;;;;5015087;28;86871;-58
2021/12/19 04:05:13;;;;;;;2.65;1.67;;;19.50;61.40;;;;;;5019573;28;88211;-59
2021/12/19 04:07:38;;;;;;;3.00;1.60;;;19.50;61.40;;;;;;5022859;28;88581;-59
2021/12/19 04:10:07;;;;;;;2.55;1.00;;;19.50;61.40;;;;;;5019620;28;89320;-58
2021/12/19 04:12:33;;;;;;;3.58;1.27;;;19.50;61.40;;;;;;5018776;28;87617;-60
2021/12/19 04:14:59;;;;;;;4.55;1.58;;;19.50;61.40;;;;;;5020299;28;87932;-60
2021/12/19 04:17:24;;;;;;;2.05;1.35;;;19.50;61.40;;;;;;5014895;28;88743;-58
2021/12/19 04:19:50;;;;;;;3.75;1.50;;;19.50;61.40;;;;;;4998351;28;87975;-58
2021/12/19 04:22:16;;;;;;;4.63;1.52;;;19.50;61.40;;;;;;5018120;28;87510;-58
2021/12/19 04:24:41;;;;;;;3.45;1.50;;;19.50;61.40;;;;;;5017999;28;88157;-59
2021/12/19 04:27:07;;;;;;;4.28;1.70;;;19.50;61.40;;;;;;4998330;28;89851;-63
2021/12/19 04:29:33;;;;;;;4.53;1.30;;;19.40;61.30;;;;;;5022601;28;88304;-59
2021/12/19 04:31:58;;;;;;;3.72;1.90;;;19.50;61.40;;;;;;5022912;28;89858;-59
2021/12/19 04:34:24;;;;;;;3.92;1.60;;;19.40;61.30;;;;;;5021221;28;89023;-59
2021/12/19 04:37:00;;;;;;;2.83;1.58;;;19.40;61.30;;;;;;5017641;28;88362;-58
2021/12/19 04:39:38;;;;;;;4.82;1.65;;;19.40;61.30;;;;;;5016486;28;88356;-60
2021/12/19 04:58:20;;;;;;;3.03;1.63;;;19.40;61.30;;;;;;5018196;28;87554;-61
2021/12/19 05:01:10;;;;;;;3.08;1.65;;;19.40;61.30;;;;;;5018581;28;89540;-58
2021/12/19 05:14:15;;;;;;;5.05;1.17;;;19.40;61.30;;;;;;5017359;28;88496;-58
2021/12/19 05:16:44;;;;;;;1.88;1.23;;;19.40;61.30;;;;;;5017892;28;87794;-58
2021/12/19 05:19:43;;;;;;;2.55;1.02;;;19.40;61.30;;;;;;5021365;28;87204;-58
2021/12/19 05:22:00;;;;;;;2.85;1.35;;;19.30;61.20;;;;;;5022378;28;88372;-59
2021/12/19 05:27:17;;;;;;;3.22;1.33;;;19.30;61.20;;;;;;4979699;28;88458;-58
2021/12/19 05:29:43;;;;;;;3.08;1.48;;;19.30;61.20;;;;;;5016592;28;88806;-61
2021/12/19 05:32:09;;;;;;;4.82;1.80;;;19.30;61.20;;;;;;5017071;28;88064;-58
2021/12/19 05:34:40;;;;;;;2.35;1.05;;;19.30;61.20;;;;;;5014344;28;87491;-59
2021/12/19 05:45:20;;;;;;;2.75;1.08;;;19.30;61.20;;;;;;5017382;28;87081;-58
2021/12/19 05:47:48;;;;;;;3.15;1.23;;;19.30;61.20;;;;;;5012936;28;90635;-58
2021/12/19 05:50:20;;;;;;;2.22;1.38;;;19.30;61.20;;;;;;5017819;28;88186;-58
2021/12/19 05:52:47;;;;;;;1.67;1.10;;;19.30;61.20;;;;;;5019931;28;88020;-58
2021/12/19 05:55:14;;;;;;;2.60;1.20;;;19.30;61.20;;;;;;5017818;28;88241;-58
2021/12/19 05:57:40;;;;;;;4.18;1.52;;;19.30;61.20;;;;;;5016499;28;88106;-60
2021/12/19 06:00:09;;;;;;;2.00;1.17;;;19.30;61.20;;;;;;5020924;28;89301;-58
2021/12/19 06:02:35;;;;;;;2.78;1.50;;;19.30;61.10;;;;;;5016820;28;87846;-60
2021/12/19 06:05:02;;;;;;;2.75;1.40;;;19.30;61.20;;;;;;5011875;28;88187;-59
2021/12/19 06:07:27;;;;;;;2.65;1.25;;;19.30;61.10;;;;;;5017038;28;88109;-58
2021/12/19 06:09:53;;;;;;;3.20;1.05;;;19.30;61.10;;;;;;5015581;28;87946;-58
2021/12/19 06:12:18;;;;;;;1.75;1.10;;;19.30;61.10;;;;;;5015893;28;87614;-58
2021/12/19 06:14:44;;;;;;;4.18;1.35;;;19.20;61.10;;;;;;5012010;28;87105;-60
2021/12/19 06:17:10;;;;;;;1.55;0.95;;;19.30;61.10;;;;;;5011598;28;89073;-59
2021/12/19 06:19:36;;;;;;;2.42;0.98;;;19.20;61.10;;;;;;5021670;28;88877;-60
2021/12/19 06:22:04;;;;;;;1.88;0.80;;;19.30;61.10;;;;;;5016728;28;87471;-58
2021/12/19 06:24:30;;;;;;;1.52;1.10;;;19.20;61.10;;;;;;5015606;28;87663;-58
2021/12/19 06:26:56;;;;;;;2.17;1.20;;;19.20;61.10;;;;;;5018367;28;87682;-59
2021/12/19 06:29:22;;;;;;;3.28;1.27;;;19.30;61.20;;;;;;5013160;28;88109;-60
2021/12/19 06:31:47;;;;;;;2.75;1.10;;;19.20;61.10;;;;;;4996115;28;87969;-59
2021/12/19 06:34:13;;;;;;;2.53;1.20;;;19.20;61.10;;;;;;5016950;28;86858;-59
2021/12/19 06:36:40;;;;;;;2.10;1.02;;;19.20;61.10;;;;;;5000924;28;92358;-59
2021/12/19 06:39:06;;;;;;;1.60;0.88;;;19.20;61.10;;;;;;5017634;28;87762;-60
2021/12/19 06:41:34;;;;;;;4.35;1.40;;;19.20;61.10;;;;;;5018925;28;88019;-59
2021/12/19 06:43:59;;;;;;;2.60;1.63;;;19.20;61.10;;;;;;5007533;28;89952;-58
2021/12/19 06:46:25;;;;;;;2.25;1.20;;;19.20;61.10;;;;;;5017694;28;87131;-60
2021/12/19 06:48:50;;;;;;;1.75;1.15;;;19.20;61.20;;;;;;5010998;28;88332;-58
2021/12/19 06:51:16;;;;;;;2.03;1.08;;;19.20;61.10;;;;;;5020707;28;87713;-58
2021/12/19 06:53:42;;;;;;;2.17;1.00;;;19.20;61.10;;;;;;5016312;28;88144;-58
2021/12/19 06:56:08;;;;;;;3.10;1.20;;;19.20;61.10;;;;;;5020910;28;87845;-58
2021/12/19 06:58:34;;;;;;;2.10;1.27;;;19.20;61.20;;;;;;5015871;28;87964;-60
2021/12/19 07:00:59;;;;;;;2.20;1.25;;;19.20;61.10;;;;;;5021654;28;88384;-58
2021/12/19 07:03:25;;;;;;;1.70;1.00;;;19.20;61.10;;;;;;5016329;28;87730;-59
2021/12/19 07:05:51;;;;;;;1.63;1.10;;;19.20;61.10;;;;;;5021680;28;89063;-61
2021/12/19 07:08:18;;;;;;;3.28;1.40;;;19.20;61.10;;;;;;5009906;28;88738;-59
2021/12/19 07:10:44;;;;;;;2.03;1.20;;;19.20;61.10;;;;;;5009003;28;87745;-60
2021/12/19 07:13:09;;;;;;;2.15;0.98;;;19.20;61.10;;;;;;5010901;28;89254;-58
2021/12/19 07:15:35;;;;;;;2.53;1.13;;;19.10;61.10;;;;;;5015191;28;88881;-58
2021/12/19 07:18:06;;;;;;;3.08;0.95;;;19.10;61.10;;;;;;5018790;28;88407;-58
2021/12/19 07:20:41;;;;;;;1.23;0.93;;;19.20;61.10;;;;;;5014506;28;88010;-60
2021/12/19 07:23:07;;;;;;;1.50;0.88;;;19.10;61.10;;;;;;5021463;28;86447;-58
2021/12/19 07:25:32;;;;;;;2.22;1.00;;;19.20;61.20;;;;;;5015953;28;88879;-58
2021/12/19 07:27:58;;;;;;;4.10;1.25;;;19.20;61.10;;;;;;5018456;28;87497;-59
2021/12/19 07:30:25;;;;;;;2.00;1.08;;;19.10;61.10;;;;;;5014636;28;89328;-59
2021/12/19 07:32:52;;;;;;;2.20;1.40;;;19.10;61.10;;;;;;5015215;28;87368;-64
2021/12/19 07:35:17;;;;;;;1.35;0.88;;;19.10;61.10;;;;;;5021168;28;88136;-60
2021/12/19 07:37:45;;;;;;;2.20;1.23;;;19.10;61.10;;;;;;5000182;28;90334;-58
2021/12/19 07:40:16;;;;;;;1.73;1.00;;;19.10;61.10;;;;;;5025029;28;88144;-63
2021/12/19 07:42:43;;;;;;;1.45;1.00;;;19.10;61.10;;;;;;5019037;28;87091;-60
2021/12/19 07:45:10;;;;;;;3.25;0.80;;;19.10;61.10;;;;;;5024111;28;88680;-60
2021/12/19 07:47:38;;;;;;;3.17;1.00;;;19.10;62.30;;;;;;5013947;28;90836;-60
2021/12/19 07:50:05;;;;;;;5.97;0.95;;;19.10;61.80;;;;;;5019551;28;88356;-59
2021/12/19 07:52:31;;;;;;;3.42;1.25;;;19.10;62.00;;;;;;5012681;28;87204;-59
2021/12/19 07:54:56;;;;;;;2.67;1.13;;;19.10;61.90;;;;;;5018538;28;88598;-59
2021/12/19 07:57:22;;;;;;;3.03;1.10;;;19.10;61.80;;;;;;5019217;28;88353;-58
2021/12/19 07:59:47;;;;;;;5.53;1.13;;;19.10;61.80;;;;;;5017989;28;88247;-60
2021/12/19 08:02:13;;;;;;;2.72;1.10;;;19.10;61.70;;;;;;5013391;28;87348;-58
2021/12/19 08:04:39;;;;;;;3.83;1.38;;;19.20;61.70;;;;;;5017864;28;88116;-61
2021/12/19 08:07:05;;;;;;;2.33;1.45;;;19.20;61.40;;;;;;5018281;28;87836;-58
2021/12/19 08:09:39;;;;;;;3.72;1.65;;;19.30;61.30;;;;;;5017272;28;87140;-59
2021/12/19 08:12:06;;;;;;;2.78;1.40;;;19.40;61.10;;;;;;5013617;28;86586;-58
2021/12/19 08:14:32;;;;;;;3.67;1.50;;;19.50;60.90;;;;;;5018914;28;88419;-57
2021/12/19 08:16:58;;;;;;;3.10;1.45;;;19.60;60.70;;;;;;5018672;28;88064;-61
2021/12/19 08:19:23;;;;;;;4.53;1.58;;;19.70;60.50;;;;;;5023555;28;88057;-57
2021/12/19 08:21:49;;;;;;;2.47;1.42;;;19.80;60.30;;;;;;5018395;28;87701;-61
2021/12/19 08:24:15;;;;;;;5.13;1.38;;;19.80;60.00;;;;;;5002596;28;91276;-58
2021/12/19 08:26:42;;;;;;;3.50;1.80;;;19.90;59.90;;;;;;5018242;28;87910;-60
2021/12/19 08:29:10;;;;;;;4.35;1.67;;;20.00;59.80;;;;;;5021000;28;88074;-60
2021/12/19 08:31:36;;;;;;;9.50;1.92;;;20.10;59.80;;;;;;4997241;28;88244;-58
2021/12/19 08:34:02;;;;;;;10.93;2.28;;;20.20;60.20;;;;;;5020482;28;87687;-56
2021/12/19 08:36:27;;;;;;;7.55;2.10;;;20.20;59.50;;;;;;4994086;28;91410;-58
2021/12/19 08:38:53;;;;;;;4.00;1.67;;;20.30;59.50;;;;;;5020994;28;88291;-58
2021/12/19 08:41:22;;;;;;;6.22;2.42;;;20.30;59.50;;;;;;5021862;28;88111;-58
2021/12/19 08:43:47;;;;;;;6.13;1.88;;;20.30;59.40;;;;;;5009191;28;92022;-58
2021/12/19 08:46:13;;;;;;;10.05;2.55;;;20.40;59.30;;;;;;5015531;28;88635;-58
2021/12/19 08:48:39;;;;;;;8.68;2.65;;;20.40;59.30;;;;;;5021282;28;88189;-59
2021/12/19 08:51:05;;;;;;;8.48;3.42;;;20.40;59.20;;;;;;5016590;28;87882;-58
2021/12/19 08:53:31;;;;;;;18.48;4.30;;;20.40;59.10;;;;;;5022326;28;88039;-58
2021/12/19 08:55:57;;;;;;;10.27;2.95;;;20.40;59.00;;;;;;5018177;28;88393;-58
2021/12/19 08:58:22;;;;;;;6.95;2.60;;;20.40;58.90;;;;;;5011596;28;88211;-58
2021/12/19 09:00:48;;;;;;;12.18;3.20;;;20.40;58.80;;;;;;5017102;28;87021;-57
2021/12/19 09:03:14;;;;;;;14.90;3.08;;;20.40;58.70;;;;;;5016061;28;88057;-58
2021/12/19 09:05:40;;;;;;;12.73;3.15;;;20.40;58.60;;;;;;4967407;28;89792;-60
2021/12/19 09:08:06;;;;;;;14.25;4.15;;;20.40;58.50;;;;;;5008827;28;88818;-58
2021/12/19 09:10:32;;;;;;;8.32;2.83;;;20.40;58.50;;;;;;5009284;28;88495;-58
2021/12/19 09:12:58;;;;;;;9.27;3.53;;;20.40;58.40;;;;;;4993599;28;89555;-58
2021/12/19 09:15:24;;;;;;;13.90;4.20;;;20.50;58.50;;;;;;5023099;28;87625;-58
2021/12/19 09:17:50;;;;;;;10.40;3.88;;;20.50;58.40;;;;;;5016282;28;87359;-58
2021/12/19 09:20:16;;;;;;;12.50;4.25;;;20.50;58.20;;;;;;5019512;28;88461;-58
2021/12/19 09:22:42;;;;;;;12.07;3.72;;;20.50;58.10;;;;;;5015133;28;89310;-62
2021/12/19 09:25:08;;;;;;;8.98;3.92;;;20.60;58.50;;;;;;5018325;28;86944;-58
2021/12/19 09:27:34;;;;;;;8.63;3.55;;;20.60;57.80;;;;;;5004596;28;88457;-58
2021/12/19 09:30:00;;;;;;;15.73;4.22;;;20.70;57.70;;;;;;5015972;28;87863;-57
2021/12/19 09:32:27;;;;;;;11.27;4.20;;;20.70;57.60;;;;;;5015233;28;89058;-58
2021/12/19 09:34:53;;;;;;;14.95;4.00;;;20.80;57.40;;;;;;5017024;28;88260;-58
2021/12/19 09:37:19;;;;;;;14.27;4.43;;;20.80;57.30;;;;;;5014813;28;88124;-65
2021/12/19 09:39:47;;;;;;;11.43;4.10;;;20.80;57.10;;;;;;5017264;28;87999;-60
2021/12/19 09:42:17;;;;;;;15.82;4.55;;;20.90;57.20;;;;;;5017889;28;88324;-59
2021/12/19 09:44:43;;;;;;;10.80;4.20;;;20.90;57.00;;;;;;5015642;28;88938;-62
2021/12/19 09:47:08;;;;;;;12.73;4.10;;;20.90;56.80;;;;;;5016852;28;87052;-60
2021/12/19 09:49:35;;;;;;;13.68;4.15;;;20.90;56.70;;;;;;5015958;28;88263;-61
2021/12/19 09:52:05;;;;;;;13.88;4.07;;;21.00;56.60;;;;;;5014706;28;89358;-58
2021/12/19 09:54:31;;;;;;;12.50;4.22;;;21.00;56.50;;;;;;5017570;28;87738;-58
2021/12/19 09:56:57;;;;;;;11.23;3.53;;;21.00;56.30;;;;;;5015592;28;88409;-60
2021/12/19 09:59:24;;;;;;;13.82;4.05;;;21.00;56.20;;;;;;5015266;28;88480;-60
2021/12/19 10:01:52;;;;;;;14.10;4.68;;;21.00;56.00;;;;;;5016852;28;88156;-58
2021/12/19 10:04:38;;;;;;;11.32;3.97;;;21.10;55.90;;;;;;5017200;28;88157;-61
2021/12/19 10:07:08;;;;;;;10.95;4.28;;;21.10;55.80;;;;;;5016867;28;88195;-60
2021/12/19 10:09:37;;;;;;;9.32;3.75;;;21.10;55.60;;;;;;4992358;28;90979;-59
2021/12/19 10:12:35;;;;;;;10.52;3.75;;;21.00;55.60;;;;;;5020575;28;88247;-61
2021/12/19 10:15:09;;;;;;;17.30;4.32;;;21.10;55.50;;;;;;5021144;28;88766;-61
2021/12/19 10:17:36;;;;;;;12.70;4.00;;;21.10;55.50;;;;;;5016374;28;88267;-60
2021/12/19 10:20:05;;;;;;;11.63;3.83;;;21.10;55.30;;;;;;5016894;28;87873;-61
2021/12/19 10:22:32;;;;;;;11.65;4.50;;;21.10;55.20;;;;;;5015775;28;90197;-59
2021/12/19 10:25:11;;;;;;;7.22;3.33;;;21.10;55.20;;;;;;5021709;28;90862;-62
2021/12/19 10:27:48;;;;;;;9.15;3.38;;;21.10;55.10;;;;;;5016037;28;87417;-62
2021/12/19 10:30:58;;;;;;;11.10;3.55;;;21.10;55.10;;;;;;5021127;28;87846;-64
2021/12/19 10:33:28;;;;;;;7.25;3.60;;;21.00;55.00;;;;;;4989511;28;89717;-60
2021/12/19 10:35:59;;;;;;;11.13;3.28;;;21.00;54.90;;;;;;5016079;28;88712;-63
2021/12/19 10:38:28;;;;;;;10.88;3.60;;;21.00;55.10;;;;;;5017264;28;87906;-64
2021/12/19 10:41:01;;;;;;;8.85;3.67;;;21.00;55.40;;;;;;4994496;28;89601;-69
2021/12/19 10:43:30;;;;;;;7.25;3.40;;;21.00;55.70;;;;;;5013590;28;88076;-69
2021/12/19 10:46:01;;;;;;;9.70;4.38;;;20.90;55.90;;;;;;5016759;28;88238;-68
2021/12/19 10:48:30;;;;;;;11.50;4.20;;;20.90;56.20;;;;;;4993205;28;88537;-69
2021/12/19 10:51:14;;;;;;;10.25;4.05;;;20.90;56.50;;;;;;5016124;28;88224;-68
2021/12/19 10:53:43;;;;;;;;;;;20.90;56.60;;;;;;5015949;28;88261;-67
2021/12/19 10:56:18;;;;;;;11.25;4.00;;;20.90;56.70;;;;;;5016496;28;87767;-65
2021/12/19 10:58:46;;;;;;;11.55;3.67;;;20.80;56.90;;;;;;5007765;28;87823;-67
2021/12/19 11:01:32;;;;;;;9.05;3.78;;;20.80;57.10;;;;;;4992516;28;91005;-63
2021/12/19 11:04:12;;;;;;;9.07;3.40;;;20.70;57.30;;;;;;5018266;28;87997;-60
2021/12/19 11:06:43;;;;;;;8.57;3.55;;;20.70;57.50;;;;;;4994549;28;89050;-66
2021/12/19 11:09:14;;;;;;;8.90;3.83;;;20.70;57.60;;;;;;5007731;28;88258;-64
2021/12/19 11:11:48;;;;;;;10.85;3.75;;;20.60;57.70;;;;;;5026138;28;88077;-69
2021/12/19 11:14:33;;;;;;;10.35;3.28;;;20.60;57.90;;;;;;5019557;28;90441;-68
2021/12/19 11:17:06;;;;;;;10.23;3.40;;;20.60;58.10;;;;;;4995078;28;90331;-69
2021/12/19 11:19:32;;;;;;;9.77;3.33;;;20.60;58.20;;;;;;4998580;28;87789;-64
2021/12/19 11:21:58;;;;;;;8.48;3.13;;;20.60;58.40;;;;;;5001841;28;88556;-69
2021/12/19 11:24:25;;;;;;;7.18;3.20;;;20.60;58.40;;;;;;5023483;28;88112;-68
2021/12/19 11:26:56;;;;;;;8.15;3.47;;;20.60;58.60;;;;;;5020268;28;88114;-65
2021/12/19 11:29:22;;;;;;;6.82;3.15;;;20.70;58.60;;;;;;4997884;28;87799;-62
2021/12/19 11:31:52;;;;;;;8.48;3.22;;;20.70;58.70;;;;;;5022541;28;87398;-68
2021/12/19 11:34:33;;;;;;;8.13;3.17;;;20.70;58.70;;;;;;5022226;28;88218;-65
2021/12/19 11:37:12;;;;;;;5.38;2.53;;;20.70;58.80;;;;;;5018811;28;88215;-68
2021/12/19 11:39:42;;;;;;;5.53;3.03;;;20.70;58.90;;;;;;5013616;28;89372;-68
2021/12/19 11:42:14;;;;;;;8.25;3.40;;;20.70;59.00;;;;;;5020259;28;88031;-67
2021/12/19 11:45:11;;;;;;;7.00;3.20;;;20.70;59.20;;;;;;5024688;28;88266;-64
2021/12/19 11:47:47;;;;;;;5.75;3.00;;;20.60;59.10;;;;;;5015500;28;88906;-64
2021/12/19 11:50:22;;;;;;;8.10;3.72;;;20.60;59.40;;;;;;4997319;28;87762;-67
2021/12/19 11:52:53;;;;;;;11.35;4.10;;;20.50;59.50;;;;;;5000978;28;88063;-67
2021/12/19 11:55:22;;;;;;;8.25;3.72;;;20.60;59.70;;;;;;4994116;28;89266;-64
2021/12/19 11:58:11;;;;;;;8.43;3.42;;;20.60;59.70;;;;;;5011163;28;91193;-59
2021/12/19 12:00:44;;;;;;;10.85;4.18;;;20.60;59.90;;;;;;5018798;28;87738;-66
2021/12/19 12:03:13;;;;;;;12.85;3.97;;;20.60;59.90;;;;;;4996084;28;87901;-64
2021/12/19 12:05:51;;;;;;;10.25;3.85;;;20.60;59.90;;;;;;5019072;28;89072;-61
2021/12/19 12:08:20;;;;;;;10.95;3.85;;;20.70;60.00;;;;;;5024467;28;88344;-62
2021/12/19 12:10:56;;;;;;;10.40;3.50;;;20.70;60.00;;;;;;5008042;28;87321;-64
2021/12/19 12:13:33;;;;;;;13.88;4.07;;;20.70;60.00;;;;;;5018211;28;87709;-65
2021/12/19 12:16:14;;;;;;;6.90;2.90;;;20.80;59.90;;;;;;5019618;28;87870;-63
2021/12/19 12:18:42;;;;;;;9.90;3.50;;;20.90;59.90;;;;;;5019950;28;87785;-62
2021/12/19 12:23:54;;;;;;;7.10;3.28;;;20.90;60.00;;;;;;5023700;28;87522;-65
2021/12/19 12:26:28;;;;;;;8.55;2.97;;;20.90;60.00;;;;;;5012004;28;91349;-64
2021/12/19 12:28:55;;;;;;;7.28;3.38;;;20.90;60.10;;;;;;5008787;28;88884;-66
2021/12/19 12:31:21;;;;;;;10.15;3.92;;;20.90;60.10;;;;;;4995523;28;88119;-65
2021/12/19 12:33:47;;;;;;;7.00;3.58;;;20.90;60.20;;;;;;4994101;28;88294;-63
2021/12/19 12:36:15;;;;;;;8.48;3.60;;;20.90;60.20;;;;;;5013038;28;88447;-66
2021/12/19 12:38:45;;;;;;;10.50;4.13;;;21.00;60.20;;;;;;4999494;28;89568;-64
2021/12/19 12:41:26;;;;;;;10.80;3.90;;;21.00;60.10;;;;;;5024297;28;87748;-66
2021/12/19 12:43:52;;;;;;;8.07;3.55;;;21.00;60.10;;;;;;5020882;28;87531;-66
2021/12/19 12:46:19;;;;;;;10.90;3.63;;;21.00;60.10;;;;;;5008963;28;89266;-65
2021/12/19 12:49:04;;;;;;;8.35;3.60;;;21.00;60.00;;;;;;4994348;28;89184;-66
2021/12/19 12:51:33;;;;;;;6.55;3.38;;;20.90;60.00;;;;;;5019783;28;88165;-66
2021/12/19 12:54:36;;;;;;;9.15;3.25;;;20.90;60.00;;;;;;5019036;28;87936;-65
2021/12/19 12:57:11;;;;;;;6.78;3.20;;;20.90;60.10;;;;;;4994608;28;89201;-66
2021/12/19 12:59:42;;;;;;;6.53;3.50;;;20.80;60.10;;;;;;5021180;28;88353;-64
2021/12/19 13:02:20;;;;;;;6.75;3.55;;;20.80;60.20;;;;;;5019107;28;87204;-63
2021/12/19 13:04:48;;;;;;;7.15;3.85;;;20.80;60.30;;;;;;5017374;28;87635;-67
2021/12/19 13:07:18;;;;;;;6.60;3.00;;;20.80;60.30;;;;;;5009111;28;91291;-65
2021/12/19 13:09:48;;;;;;;7.45;3.30;;;20.70;60.30;;;;;;5002797;28;90196;-66
2021/12/19 13:12:20;;;;;;;6.10;2.85;;;20.70;60.30;;;;;;5016182;28;89096;-62
2021/12/19 13:14:56;;;;;;;6.70;3.50;;;20.70;60.40;;;;;;5012202;28;90181;-61
2021/12/19 13:17:26;;;;;;;6.68;2.97;;;20.70;60.40;;;;;;4995213;28;89148;-66
2021/12/19 13:20:04;;;;;;;7.28;2.97;;;20.70;60.50;;;;;;5015821;28;87871;-64
2021/12/19 13:22:37;;;;;;;11.23;3.30;;;20.70;60.50;;;;;;4992594;28;89392;-64
2021/12/19 13:25:15;;;;;;;9.52;3.10;;;20.70;60.50;;;;;;4996621;28;88181;-65
2021/12/19 13:27:52;;;;;;;5.93;3.22;;;20.60;60.60;;;;;;5018396;28;87839;-61
2021/12/19 13:30:23;;;;;;;9.20;3.40;;;20.60;60.70;;;;;;4995762;28;89448;-64
2021/12/19 13:33:07;;;;;;;5.80;3.05;;;20.60;60.80;;;;;;5018838;27;88015;-65
2021/12/19 13:36:03;;;;;;;6.22;2.85;;;20.60;60.80;;;;;;5007992;28;87897;-62
2021/12/19 13:38:32;;;;;;;6.53;2.88;;;20.60;60.90;;;;;;5013351;28;88173;-65
2021/12/19 13:41:04;;;;;;;6.65;3.03;;;20.60;61.00;;;;;;5009266;28;90787;-64
2021/12/19 13:43:38;;;;;;;8.00;3.10;;;20.60;61.00;;;;;;5018815;28;87270;-61
2021/12/19 13:46:13;;;;;;;8.23;3.35;;;20.60;60.90;;;;;;5010165;28;87979;-64
2021/12/19 13:48:41;;;;;;;5.90;3.25;;;20.60;60.90;;;;;;5019381;28;89907;-63
2021/12/19 13:51:18;;;;;;;6.60;3.25;;;20.60;60.90;;;;;;5020470;28;88864;-65
2021/12/19 13:53:53;;;;;;;5.22;3.33;;;20.60;61.00;;;;;;4994329;28;87785;-59
2021/12/19 13:56:23;;;;;;;7.47;2.90;;;20.60;61.00;;;;;;5018367;28;87785;-63